sensor_id;sensor_type;location;lat;lon;timestamp;P1;durP1;ratioP1;P2;durP2;ratioP2
70707;SDS011;58277;47.316;18.908;2023-04-24T00:00:19;21.70;;;9.70;;
70707;SDS011;58277;47.316;18.908;2023-04-24T00:02:42;17.83;;;9.68;;
70707;SDS011;58277;47.316;18.908;2023-04-24T00:05:09;16.25;;;9.98;;
70707;SDS011;58277;47.316;18.908;2023-04-24T00:07:32;17.77;;;9.88;;
70707;SDS011;58277;47.316;18.908;2023-04-24T00:09:54;16.20;;;10.25;;
70707;SDS011;58277;47.316;18.908;2023-04-24T00:12:17;17.23;;;10.10;;
70707;SDS011;58277;47.316;18.908;2023-04-24T00:14:40;18.88;;;10.02;;
70707;SDS011;58277;47.316;18.908;2023-04-24T00:17:03;17.42;;;10.57;;
70707;SDS011;58277;47.316;18.908;2023-04-24T00:19:26;16.15;;;10.15;;
70707;SDS011;58277;47.316;18.908;2023-04-24T00:21:49;17.90;;;10.48;;
70707;SDS011;58277;47.316;18.908;2023-04-24T00:24:12;16.87;;;10.00;;
70707;SDS011;58277;47.316;18.908;2023-04-24T00:26:34;15.73;;;10.50;;
70707;SDS011;58277;47.316;18.908;2023-04-24T00:28:57;16.90;;;10.88;;
70707;SDS011;58277;47.316;18.908;2023-04-24T00:31:21;17.92;;;10.70;;
70707;SDS011;58277;47.316;18.908;2023-04-24T00:33:44;19.60;;;11.20;;
70707;SDS011;58277;47.316;18.908;2023-04-24T00:36:07;18.27;;;10.57;;
70707;SDS011;58277;47.316;18.908;2023-04-24T00:38:30;17.80;;;10.23;;
70707;SDS011;58277;47.316;18.908;2023-04-24T00:40:52;17.48;;;9.73;;
70707;SDS011;58277;47.316;18.908;2023-04-24T00:43:16;15.30;;;9.75;;
70707;SDS011;58277;47.316;18.908;2023-04-24T00:45:39;14.50;;;9.70;;
70707;SDS011;58277;47.316;18.908;2023-04-24T00:48:02;14.50;;;9.67;;
70707;SDS011;58277;47.316;18.908;2023-04-24T00:50:25;15.38;;;8.93;;
70707;SDS011;58277;47.316;18.908;2023-04-24T00:52:48;15.82;;;9.70;;
70707;SDS011;58277;47.316;18.908;2023-04-24T00:55:11;14.90;;;8.52;;
70707;SDS011;58277;47.316;18.908;2023-04-24T00:57:34;15.68;;;9.30;;
70707;SDS011;58277;47.316;18.908;2023-04-24T00:59:58;17.23;;;8.67;;
70707;SDS011;58277;47.316;18.908;2023-04-24T01:02:21;14.82;;;8.88;;
70707;SDS011;58277;47.316;18.908;2023-04-24T01:04:45;16.30;;;8.90;;
70707;SDS011;58277;47.316;18.908;2023-04-24T01:07:08;13.38;;;8.73;;
70707;SDS011;58277;47.316;18.908;2023-04-24T01:09:33;14.82;;;9.18;;
70707;SDS011;58277;47.316;18.908;2023-04-24T01:11:57;13.77;;;9.27;;
70707;SDS011;58277;47.316;18.908;2023-04-24T01:14:20;13.82;;;8.90;;
70707;SDS011;58277;47.316;18.908;2023-04-24T01:16:44;16.75;;;8.95;;
70707;SDS011;58277;47.316;18.908;2023-04-24T01:19:07;14.30;;;9.23;;
70707;SDS011;58277;47.316;18.908;2023-04-24T01:21:36;16.02;;;9.23;;
70707;SDS011;58277;47.316;18.908;2023-04-24T01:23:59;15.37;;;9.63;;
70707;SDS011;58277;47.316;18.908;2023-04-24T01:26:22;15.85;;;10.02;;
70707;SDS011;58277;47.316;18.908;2023-04-24T01:28:47;18.67;;;10.38;;
70707;SDS011;58277;47.316;18.908;2023-04-24T01:31:10;18.90;;;10.25;;
70707;SDS011;58277;47.316;18.908;2023-04-24T01:33:33;17.98;;;10.88;;
70707;SDS011;58277;47.316;18.908;2023-04-24T01:35:55;17.87;;;10.60;;
70707;SDS011;58277;47.316;18.908;2023-04-24T01:38:19;16.45;;;10.48;;
70707;SDS011;58277;47.316;18.908;2023-04-24T01:40:42;20.90;;;11.27;;
70707;SDS011;58277;47.316;18.908;2023-04-24T01:43:05;18.98;;;11.43;;
70707;SDS011;58277;47.316;18.908;2023-04-24T01:45:27;19.45;;;11.77;;
70707;SDS011;58277;47.316;18.908;2023-04-24T01:47:51;19.90;;;11.37;;
70707;SDS011;58277;47.316;18.908;2023-04-24T01:50:14;16.92;;;11.05;;
70707;SDS011;58277;47.316;18.908;2023-04-24T01:52:37;19.45;;;11.27;;
70707;SDS011;58277;47.316;18.908;2023-04-24T01:55:00;18.95;;;10.35;;
70707;SDS011;58277;47.316;18.908;2023-04-24T01:57:23;19.88;;;11.00;;
70707;SDS011;58277;47.316;18.908;2023-04-24T01:59:47;17.10;;;11.13;;
70707;SDS011;58277;47.316;18.908;2023-04-24T02:02:09;18.63;;;10.82;;
70707;SDS011;58277;47.316;18.908;2023-04-24T02:04:32;16.70;;;10.65;;
70707;SDS011;58277;47.316;18.908;2023-04-24T02:06:55;19.88;;;11.13;;
70707;SDS011;58277;47.316;18.908;2023-04-24T02:09:19;20.52;;;11.70;;
70707;SDS011;58277;47.316;18.908;2023-04-24T02:11:42;17.90;;;11.17;;
70707;SDS011;58277;47.316;18.908;2023-04-24T02:14:04;19.58;;;11.55;;
70707;SDS011;58277;47.316;18.908;2023-04-24T02:16:28;18.90;;;11.23;;
70707;SDS011;58277;47.316;18.908;2023-04-24T02:18:55;17.45;;;11.05;;
70707;SDS011;58277;47.316;18.908;2023-04-24T02:21:19;19.65;;;11.13;;
70707;SDS011;58277;47.316;18.908;2023-04-24T02:23:41;18.67;;;11.40;;
70707;SDS011;58277;47.316;18.908;2023-04-24T02:26:04;21.10;;;12.05;;
70707;SDS011;58277;47.316;18.908;2023-04-24T02:28:27;20.40;;;11.65;;
70707;SDS011;58277;47.316;18.908;2023-04-24T02:30:50;18.88;;;11.50;;
70707;SDS011;58277;47.316;18.908;2023-04-24T02:33:15;17.15;;;10.90;;
70707;SDS011;58277;47.316;18.908;2023-04-24T02:35:38;18.80;;;10.40;;
70707;SDS011;58277;47.316;18.908;2023-04-24T02:38:00;16.90;;;11.52;;
70707;SDS011;58277;47.316;18.908;2023-04-24T02:40:23;21.60;;;11.27;;
70707;SDS011;58277;47.316;18.908;2023-04-24T02:42:46;18.88;;;11.25;;
70707;SDS011;58277;47.316;18.908;2023-04-24T02:45:09;20.40;;;11.45;;
70707;SDS011;58277;47.316;18.908;2023-04-24T02:47:32;18.20;;;11.07;;
70707;SDS011;58277;47.316;18.908;2023-04-24T02:49:55;18.48;;;11.63;;
70707;SDS011;58277;47.316;18.908;2023-04-24T02:52:17;18.55;;;11.30;;
70707;SDS011;58277;47.316;18.908;2023-04-24T02:54:40;18.48;;;10.98;;
70707;SDS011;58277;47.316;18.908;2023-04-24T02:57:03;18.88;;;11.07;;
70707;SDS011;58277;47.316;18.908;2023-04-24T02:59:26;19.03;;;11.20;;
70707;SDS011;58277;47.316;18.908;2023-04-24T03:01:50;18.00;;;11.00;;
70707;SDS011;58277;47.316;18.908;2023-04-24T03:04:12;20.20;;;11.73;;
70707;SDS011;58277;47.316;18.908;2023-04-24T03:06:35;20.13;;;11.93;;
70707;SDS011;58277;47.316;18.908;2023-04-24T03:08:58;18.73;;;11.82;;
70707;SDS011;58277;47.316;18.908;2023-04-24T03:11:21;20.10;;;11.60;;
70707;SDS011;58277;47.316;18.908;2023-04-24T03:13:44;18.25;;;11.40;;
70707;SDS011;58277;47.316;18.908;2023-04-24T03:16:06;19.40;;;11.73;;
70707;SDS011;58277;47.316;18.908;2023-04-24T03:18:29;18.60;;;11.95;;
70707;SDS011;58277;47.316;18.908;2023-04-24T03:20:52;26.08;;;12.18;;
70707;SDS011;58277;47.316;18.908;2023-04-24T03:23:15;18.10;;;11.50;;
70707;SDS011;58277;47.316;18.908;2023-04-24T03:25:38;19.92;;;12.00;;
70707;SDS011;58277;47.316;18.908;2023-04-24T03:28:01;19.42;;;11.90;;
70707;SDS011;58277;47.316;18.908;2023-04-24T03:30:46;21.00;;;11.60;;
70707;SDS011;58277;47.316;18.908;2023-04-24T03:33:10;22.00;;;11.68;;
70707;SDS011;58277;47.316;18.908;2023-04-24T03:35:40;17.90;;;11.50;;
70707;SDS011;58277;47.316;18.908;2023-04-24T03:38:05;20.05;;;11.52;;
70707;SDS011;58277;47.316;18.908;2023-04-24T03:40:36;21.48;;;12.20;;
70707;SDS011;58277;47.316;18.908;2023-04-24T03:43:08;19.70;;;11.70;;
70707;SDS011;58277;47.316;18.908;2023-04-24T03:45:32;18.98;;;12.25;;
70707;SDS011;58277;47.316;18.908;2023-04-24T03:47:54;18.07;;;11.40;;
70707;SDS011;58277;47.316;18.908;2023-04-24T03:50:17;20.08;;;12.15;;
70707;SDS011;58277;47.316;18.908;2023-04-24T03:55:30;18.42;;;11.50;;
70707;SDS011;58277;47.316;18.908;2023-04-24T03:57:53;20.52;;;12.27;;
70707;SDS011;58277;47.316;18.908;2023-04-24T04:00:17;20.30;;;11.60;;
70707;SDS011;58277;47.316;18.908;2023-04-24T04:02:47;19.80;;;12.13;;
70707;SDS011;58277;47.316;18.908;2023-04-24T04:05:10;20.73;;;12.18;;
70707;SDS011;58277;47.316;18.908;2023-04-24T04:07:32;19.33;;;11.73;;
70707;SDS011;58277;47.316;18.908;2023-04-24T04:09:55;20.30;;;12.23;;
70707;SDS011;58277;47.316;18.908;2023-04-24T04:12:18;20.73;;;13.17;;
70707;SDS011;58277;47.316;18.908;2023-04-24T04:14:41;24.55;;;12.98;;
70707;SDS011;58277;47.316;18.908;2023-04-24T04:17:04;22.90;;;13.15;;
70707;SDS011;58277;47.316;18.908;2023-04-24T04:19:26;21.25;;;12.75;;
70707;SDS011;58277;47.316;18.908;2023-04-24T04:21:50;22.33;;;12.23;;
70707;SDS011;58277;47.316;18.908;2023-04-24T04:24:31;21.03;;;12.57;;
70707;SDS011;58277;47.316;18.908;2023-04-24T04:26:54;23.73;;;13.02;;
70707;SDS011;58277;47.316;18.908;2023-04-24T04:29:24;21.63;;;12.95;;
70707;SDS011;58277;47.316;18.908;2023-04-24T04:31:48;20.48;;;12.15;;
70707;SDS011;58277;47.316;18.908;2023-04-24T04:34:11;21.58;;;12.63;;
70707;SDS011;58277;47.316;18.908;2023-04-24T04:36:35;19.77;;;11.67;;
70707;SDS011;58277;47.316;18.908;2023-04-24T04:39:19;21.83;;;12.48;;
70707;SDS011;58277;47.316;18.908;2023-04-24T04:41:55;19.48;;;11.75;;
70707;SDS011;58277;47.316;18.908;2023-04-24T04:44:22;22.58;;;11.38;;
70707;SDS011;58277;47.316;18.908;2023-04-24T04:46:46;22.20;;;11.90;;
70707;SDS011;58277;47.316;18.908;2023-04-24T04:49:25;18.70;;;10.90;;
70707;SDS011;58277;47.316;18.908;2023-04-24T04:51:51;20.10;;;11.98;;
70707;SDS011;58277;47.316;18.908;2023-04-24T04:54:14;18.35;;;11.13;;
70707;SDS011;58277;47.316;18.908;2023-04-24T04:56:38;18.98;;;11.45;;
70707;SDS011;58277;47.316;18.908;2023-04-24T04:59:01;17.63;;;11.27;;
70707;SDS011;58277;47.316;18.908;2023-04-24T05:01:23;18.63;;;11.20;;
70707;SDS011;58277;47.316;18.908;2023-04-24T05:03:47;19.58;;;11.30;;
70707;SDS011;58277;47.316;18.908;2023-04-24T05:06:12;19.80;;;11.55;;
70707;SDS011;58277;47.316;18.908;2023-04-24T05:08:35;19.20;;;11.88;;
70707;SDS011;58277;47.316;18.908;2023-04-24T05:11:00;21.20;;;12.50;;
70707;SDS011;58277;47.316;18.908;2023-04-24T05:13:24;20.00;;;11.30;;
70707;SDS011;58277;47.316;18.908;2023-04-24T05:16:04;19.67;;;11.57;;
70707;SDS011;58277;47.316;18.908;2023-04-24T05:18:27;19.13;;;11.52;;
70707;SDS011;58277;47.316;18.908;2023-04-24T05:20:50;18.35;;;10.90;;
70707;SDS011;58277;47.316;18.908;2023-04-24T05:23:14;18.40;;;11.85;;
70707;SDS011;58277;47.316;18.908;2023-04-24T05:25:39;19.83;;;11.27;;
70707;SDS011;58277;47.316;18.908;2023-04-24T05:28:06;18.17;;;11.18;;
70707;SDS011;58277;47.316;18.908;2023-04-24T05:30:29;18.63;;;10.90;;
70707;SDS011;58277;47.316;18.908;2023-04-24T05:32:52;19.67;;;11.48;;
70707;SDS011;58277;47.316;18.908;2023-04-24T05:35:15;18.88;;;11.02;;
70707;SDS011;58277;47.316;18.908;2023-04-24T05:37:38;19.43;;;10.80;;
70707;SDS011;58277;47.316;18.908;2023-04-24T05:40:02;18.77;;;10.82;;
70707;SDS011;58277;47.316;18.908;2023-04-24T05:42:28;16.63;;;10.10;;
70707;SDS011;58277;47.316;18.908;2023-04-24T05:44:52;17.40;;;10.52;;
70707;SDS011;58277;47.316;18.908;2023-04-24T05:47:19;16.92;;;10.52;;
70707;SDS011;58277;47.316;18.908;2023-04-24T05:49:44;20.77;;;10.13;;
70707;SDS011;58277;47.316;18.908;2023-04-24T05:52:07;17.55;;;10.48;;
70707;SDS011;58277;47.316;18.908;2023-04-24T05:54:33;16.60;;;10.27;;
70707;SDS011;58277;47.316;18.908;2023-04-24T05:56:56;16.75;;;10.13;;
70707;SDS011;58277;47.316;18.908;2023-04-24T05:59:29;16.13;;;10.23;;
70707;SDS011;58277;47.316;18.908;2023-04-24T06:01:52;17.73;;;10.30;;
70707;SDS011;58277;47.316;18.908;2023-04-24T06:04:17;17.48;;;9.93;;
70707;SDS011;58277;47.316;18.908;2023-04-24T06:06:42;19.05;;;10.23;;
70707;SDS011;58277;47.316;18.908;2023-04-24T06:09:08;16.05;;;9.85;;
70707;SDS011;58277;47.316;18.908;2023-04-24T06:11:34;15.85;;;10.02;;
70707;SDS011;58277;47.316;18.908;2023-04-24T06:14:01;16.47;;;10.00;;
70707;SDS011;58277;47.316;18.908;2023-04-24T06:16:36;19.08;;;10.73;;
70707;SDS011;58277;47.316;18.908;2023-04-24T06:19:06;15.80;;;9.95;;
70707;SDS011;58277;47.316;18.908;2023-04-24T06:21:31;16.83;;;9.90;;
70707;SDS011;58277;47.316;18.908;2023-04-24T06:23:54;15.82;;;10.65;;
70707;SDS011;58277;47.316;18.908;2023-04-24T06:26:18;18.13;;;11.33;;
70707;SDS011;58277;47.316;18.908;2023-04-24T06:28:41;16.83;;;10.40;;
70707;SDS011;58277;47.316;18.908;2023-04-24T06:31:04;16.85;;;10.80;;
70707;SDS011;58277;47.316;18.908;2023-04-24T06:33:27;17.42;;;10.75;;
70707;SDS011;58277;47.316;18.908;2023-04-24T06:35:50;15.52;;;10.27;;
70707;SDS011;58277;47.316;18.908;2023-04-24T06:38:13;18.27;;;10.63;;
70707;SDS011;58277;47.316;18.908;2023-04-24T06:40:35;19.05;;;10.60;;
70707;SDS011;58277;47.316;18.908;2023-04-24T06:42:58;17.17;;;10.68;;
70707;SDS011;58277;47.316;18.908;2023-04-24T06:45:22;16.48;;;10.00;;
70707;SDS011;58277;47.316;18.908;2023-04-24T06:47:45;16.05;;;10.60;;
70707;SDS011;58277;47.316;18.908;2023-04-24T06:50:08;18.40;;;10.60;;
70707;SDS011;58277;47.316;18.908;2023-04-24T06:52:31;16.83;;;10.80;;
70707;SDS011;58277;47.316;18.908;2023-04-24T06:55:01;17.27;;;10.68;;
70707;SDS011;58277;47.316;18.908;2023-04-24T06:57:27;20.48;;;10.80;;
70707;SDS011;58277;47.316;18.908;2023-04-24T06:59:50;19.60;;;11.18;;
70707;SDS011;58277;47.316;18.908;2023-04-24T07:02:13;17.17;;;10.50;;
70707;SDS011;58277;47.316;18.908;2023-04-24T07:04:36;20.48;;;11.27;;
70707;SDS011;58277;47.316;18.908;2023-04-24T07:06:59;18.27;;;11.20;;
70707;SDS011;58277;47.316;18.908;2023-04-24T07:09:23;19.92;;;10.38;;
70707;SDS011;58277;47.316;18.908;2023-04-24T07:11:48;23.98;;;12.07;;
70707;SDS011;58277;47.316;18.908;2023-04-24T07:14:11;20.57;;;11.23;;
70707;SDS011;58277;47.316;18.908;2023-04-24T07:16:34;18.02;;;11.35;;
70707;SDS011;58277;47.316;18.908;2023-04-24T07:18:58;18.77;;;11.10;;
70707;SDS011;58277;47.316;18.908;2023-04-24T07:21:20;19.67;;;11.68;;
70707;SDS011;58277;47.316;18.908;2023-04-24T07:23:43;18.20;;;10.93;;
70707;SDS011;58277;47.316;18.908;2023-04-24T07:26:06;17.67;;;11.00;;
70707;SDS011;58277;47.316;18.908;2023-04-24T07:28:31;22.90;;;11.40;;
70707;SDS011;58277;47.316;18.908;2023-04-24T07:30:54;17.88;;;11.55;;
70707;SDS011;58277;47.316;18.908;2023-04-24T07:33:17;18.08;;;10.63;;
70707;SDS011;58277;47.316;18.908;2023-04-24T07:35:41;17.27;;;11.40;;
70707;SDS011;58277;47.316;18.908;2023-04-24T07:38:04;18.37;;;10.47;;
70707;SDS011;58277;47.316;18.908;2023-04-24T07:40:27;16.35;;;11.13;;
70707;SDS011;58277;47.316;18.908;2023-04-24T07:42:50;19.60;;;11.45;;
70707;SDS011;58277;47.316;18.908;2023-04-24T07:45:13;16.13;;;10.80;;
70707;SDS011;58277;47.316;18.908;2023-04-24T07:47:36;17.13;;;10.65;;
70707;SDS011;58277;47.316;18.908;2023-04-24T07:50:00;17.13;;;10.33;;
70707;SDS011;58277;47.316;18.908;2023-04-24T07:52:25;19.70;;;10.63;;
70707;SDS011;58277;47.316;18.908;2023-04-24T07:54:48;17.90;;;11.23;;
70707;SDS011;58277;47.316;18.908;2023-04-24T07:57:12;15.90;;;10.20;;
70707;SDS011;58277;47.316;18.908;2023-04-24T07:59:34;17.35;;;10.85;;
70707;SDS011;58277;47.316;18.908;2023-04-24T08:01:57;19.30;;;11.00;;
70707;SDS011;58277;47.316;18.908;2023-04-24T08:04:21;17.88;;;10.98;;
70707;SDS011;58277;47.316;18.908;2023-04-24T08:06:47;16.35;;;11.25;;
70707;SDS011;58277;47.316;18.908;2023-04-24T08:09:10;17.83;;;11.38;;
70707;SDS011;58277;47.316;18.908;2023-04-24T08:11:33;19.35;;;11.68;;
70707;SDS011;58277;47.316;18.908;2023-04-24T08:13:56;18.43;;;11.40;;
70707;SDS011;58277;47.316;18.908;2023-04-24T08:16:19;17.95;;;11.10;;
70707;SDS011;58277;47.316;18.908;2023-04-24T08:18:43;16.17;;;11.25;;
70707;SDS011;58277;47.316;18.908;2023-04-24T08:21:06;19.88;;;11.18;;
70707;SDS011;58277;47.316;18.908;2023-04-24T08:23:29;17.35;;;11.60;;
70707;SDS011;58277;47.316;18.908;2023-04-24T08:25:52;17.67;;;11.00;;
70707;SDS011;58277;47.316;18.908;2023-04-24T08:28:15;17.85;;;11.30;;
70707;SDS011;58277;47.316;18.908;2023-04-24T08:30:42;16.60;;;11.18;;
70707;SDS011;58277;47.316;18.908;2023-04-24T08:33:05;17.08;;;10.27;;
70707;SDS011;58277;47.316;18.908;2023-04-24T08:35:28;16.13;;;11.23;;
70707;SDS011;58277;47.316;18.908;2023-04-24T08:37:52;16.00;;;10.70;;
70707;SDS011;58277;47.316;18.908;2023-04-24T08:40:22;17.10;;;10.70;;
70707;SDS011;58277;47.316;18.908;2023-04-24T08:42:52;15.23;;;10.25;;
70707;SDS011;58277;47.316;18.908;2023-04-24T08:45:18;15.80;;;10.57;;
70707;SDS011;58277;47.316;18.908;2023-04-24T08:47:41;14.52;;;10.43;;
70707;SDS011;58277;47.316;18.908;2023-04-24T08:50:05;13.83;;;9.57;;
70707;SDS011;58277;47.316;18.908;2023-04-24T08:52:29;15.05;;;10.05;;
70707;SDS011;58277;47.316;18.908;2023-04-24T08:54:52;17.70;;;10.57;;
70707;SDS011;58277;47.316;18.908;2023-04-24T08:57:17;18.70;;;10.43;;
70707;SDS011;58277;47.316;18.908;2023-04-24T08:59:40;17.60;;;10.20;;
70707;SDS011;58277;47.316;18.908;2023-04-24T09:02:05;16.20;;;10.70;;
70707;SDS011;58277;47.316;18.908;2023-04-24T09:04:32;15.25;;;10.05;;
70707;SDS011;58277;47.316;18.908;2023-04-24T09:06:57;16.00;;;10.18;;
70707;SDS011;58277;47.316;18.908;2023-04-24T09:09:22;13.93;;;9.73;;
70707;SDS011;58277;47.316;18.908;2023-04-24T09:11:46;14.48;;;9.82;;
70707;SDS011;58277;47.316;18.908;2023-04-24T09:14:11;14.97;;;9.87;;
70707;SDS011;58277;47.316;18.908;2023-04-24T09:16:35;15.65;;;9.43;;
70707;SDS011;58277;47.316;18.908;2023-04-24T09:18:58;14.75;;;10.10;;
70707;SDS011;58277;47.316;18.908;2023-04-24T09:21:23;15.57;;;9.95;;
70707;SDS011;58277;47.316;18.908;2023-04-24T09:23:46;16.55;;;10.13;;
70707;SDS011;58277;47.316;18.908;2023-04-24T09:26:09;16.20;;;9.50;;
70707;SDS011;58277;47.316;18.908;2023-04-24T09:28:36;16.77;;;9.50;;
70707;SDS011;58277;47.316;18.908;2023-04-24T09:33:26;14.52;;;9.85;;
70707;SDS011;58277;47.316;18.908;2023-04-24T09:35:49;15.00;;;10.18;;
70707;SDS011;58277;47.316;18.908;2023-04-24T09:38:13;16.43;;;9.40;;
70707;SDS011;58277;47.316;18.908;2023-04-24T09:40:36;15.52;;;10.27;;
70707;SDS011;58277;47.316;18.908;2023-04-24T09:43:02;18.27;;;10.45;;
70707;SDS011;58277;47.316;18.908;2023-04-24T09:45:28;16.77;;;10.13;;
70707;SDS011;58277;47.316;18.908;2023-04-24T09:47:57;15.63;;;10.23;;
70707;SDS011;58277;47.316;18.908;2023-04-24T09:50:21;15.97;;;10.60;;
70707;SDS011;58277;47.316;18.908;2023-04-24T09:52:46;17.10;;;10.80;;
70707;SDS011;58277;47.316;18.908;2023-04-24T09:55:19;17.92;;;9.90;;
70707;SDS011;58277;47.316;18.908;2023-04-24T09:57:49;16.20;;;10.20;;
70707;SDS011;58277;47.316;18.908;2023-04-24T10:00:17;14.13;;;9.23;;
70707;SDS011;58277;47.316;18.908;2023-04-24T10:02:56;15.87;;;8.87;;
70707;SDS011;58277;47.316;18.908;2023-04-24T10:05:22;12.45;;;8.30;;
70707;SDS011;58277;47.316;18.908;2023-04-24T10:07:47;14.88;;;8.75;;
70707;SDS011;58277;47.316;18.908;2023-04-24T10:10:11;13.07;;;8.60;;
70707;SDS011;58277;47.316;18.908;2023-04-24T10:12:34;15.43;;;8.73;;
70707;SDS011;58277;47.316;18.908;2023-04-24T10:14:57;16.13;;;8.70;;
70707;SDS011;58277;47.316;18.908;2023-04-24T10:17:20;16.23;;;9.20;;
70707;SDS011;58277;47.316;18.908;2023-04-24T10:19:44;18.23;;;10.63;;
70707;SDS011;58277;47.316;18.908;2023-04-24T10:22:09;16.48;;;10.23;;
70707;SDS011;58277;47.316;18.908;2023-04-24T10:24:33;17.48;;;10.23;;
70707;SDS011;58277;47.316;18.908;2023-04-24T10:26:57;14.60;;;9.17;;
70707;SDS011;58277;47.316;18.908;2023-04-24T10:29:20;15.10;;;9.50;;
70707;SDS011;58277;47.316;18.908;2023-04-24T10:31:44;15.10;;;9.73;;
70707;SDS011;58277;47.316;18.908;2023-04-24T10:34:10;13.82;;;9.02;;
70707;SDS011;58277;47.316;18.908;2023-04-24T10:36:34;13.25;;;7.43;;
70707;SDS011;58277;47.316;18.908;2023-04-24T10:38:59;11.47;;;7.67;;
70707;SDS011;58277;47.316;18.908;2023-04-24T10:41:25;10.23;;;6.63;;
70707;SDS011;58277;47.316;18.908;2023-04-24T10:43:48;10.98;;;6.70;;
70707;SDS011;58277;47.316;18.908;2023-04-24T10:46:26;9.63;;;6.03;;
70707;SDS011;58277;47.316;18.908;2023-04-24T10:48:53;10.38;;;5.70;;
70707;SDS011;58277;47.316;18.908;2023-04-24T10:51:17;9.30;;;5.43;;
70707;SDS011;58277;47.316;18.908;2023-04-24T10:53:41;7.85;;;5.53;;
70707;SDS011;58277;47.316;18.908;2023-04-24T10:56:05;11.02;;;6.22;;
70707;SDS011;58277;47.316;18.908;2023-04-24T10:58:42;10.93;;;6.20;;
70707;SDS011;58277;47.316;18.908;2023-04-24T11:01:27;7.45;;;5.63;;
70707;SDS011;58277;47.316;18.908;2023-04-24T11:03:55;8.53;;;5.67;;
70707;SDS011;58277;47.316;18.908;2023-04-24T11:06:30;7.05;;;4.63;;
70707;SDS011;58277;47.316;18.908;2023-04-24T11:09:04;6.97;;;4.50;;
70707;SDS011;58277;47.316;18.908;2023-04-24T11:11:31;10.30;;;5.40;;
70707;SDS011;58277;47.316;18.908;2023-04-24T11:18:49;10.10;;;6.88;;
70707;SDS011;58277;47.316;18.908;2023-04-24T11:21:17;11.57;;;7.60;;
70707;SDS011;58277;47.316;18.908;2023-04-24T11:23:40;13.77;;;7.70;;
70707;SDS011;58277;47.316;18.908;2023-04-24T11:26:09;11.43;;;8.00;;
70707;SDS011;58277;47.316;18.908;2023-04-24T11:28:48;13.10;;;8.20;;
70707;SDS011;58277;47.316;18.908;2023-04-24T11:34:05;11.20;;;7.70;;
70707;SDS011;58277;47.316;18.908;2023-04-24T11:36:34;11.80;;;8.30;;
70707;SDS011;58277;47.316;18.908;2023-04-24T11:38:57;9.95;;;6.57;;
70707;SDS011;58277;47.316;18.908;2023-04-24T11:41:20;13.77;;;7.43;;
70707;SDS011;58277;47.316;18.908;2023-04-24T11:43:44;10.10;;;4.50;;
70707;SDS011;58277;47.316;18.908;2023-04-24T11:46:09;8.85;;;3.70;;
70707;SDS011;58277;47.316;18.908;2023-04-24T11:48:34;6.60;;;3.47;;
70707;SDS011;58277;47.316;18.908;2023-04-24T11:51:01;8.38;;;3.70;;
70707;SDS011;58277;47.316;18.908;2023-04-24T11:53:25;7.87;;;3.80;;
70707;SDS011;58277;47.316;18.908;2023-04-24T11:55:48;8.52;;;3.45;;
70707;SDS011;58277;47.316;18.908;2023-04-24T11:58:10;7.07;;;4.50;;
70707;SDS011;58277;47.316;18.908;2023-04-24T12:00:34;14.00;;;4.43;;
70707;SDS011;58277;47.316;18.908;2023-04-24T12:05:31;6.10;;;3.63;;
70707;SDS011;58277;47.316;18.908;2023-04-24T12:07:54;7.80;;;3.55;;
70707;SDS011;58277;47.316;18.908;2023-04-24T12:10:21;12.23;;;6.50;;
70707;SDS011;58277;47.316;18.908;2023-04-24T12:12:45;6.35;;;3.72;;
70707;SDS011;58277;47.316;18.908;2023-04-24T12:15:09;7.03;;;3.67;;
70707;SDS011;58277;47.316;18.908;2023-04-24T12:17:32;5.10;;;3.40;;
70707;SDS011;58277;47.316;18.908;2023-04-24T12:20:02;6.13;;;4.10;;
70707;SDS011;58277;47.316;18.908;2023-04-24T12:22:28;10.32;;;4.00;;
70707;SDS011;58277;47.316;18.908;2023-04-24T12:25:06;8.88;;;4.75;;
70707;SDS011;58277;47.316;18.908;2023-04-24T12:27:32;6.57;;;4.20;;
70707;SDS011;58277;47.316;18.908;2023-04-24T12:29:56;7.27;;;3.47;;
70707;SDS011;58277;47.316;18.908;2023-04-24T12:32:20;6.45;;;3.13;;
70707;SDS011;58277;47.316;18.908;2023-04-24T12:34:43;4.63;;;3.20;;
70707;SDS011;58277;47.316;18.908;2023-04-24T12:37:09;6.05;;;3.25;;
70707;SDS011;58277;47.316;18.908;2023-04-24T12:39:33;6.80;;;3.13;;
70707;SDS011;58277;47.316;18.908;2023-04-24T12:41:56;6.67;;;3.10;;
70707;SDS011;58277;47.316;18.908;2023-04-24T12:44:19;5.85;;;3.42;;
70707;SDS011;58277;47.316;18.908;2023-04-24T12:46:42;7.95;;;3.22;;
70707;SDS011;58277;47.316;18.908;2023-04-24T12:49:04;8.30;;;3.72;;
70707;SDS011;58277;47.316;18.908;2023-04-24T12:51:27;8.30;;;4.22;;
70707;SDS011;58277;47.316;18.908;2023-04-24T12:53:50;7.10;;;4.20;;
70707;SDS011;58277;47.316;18.908;2023-04-24T12:56:15;8.43;;;4.65;;
70707;SDS011;58277;47.316;18.908;2023-04-24T12:58:39;8.90;;;4.50;;
70707;SDS011;58277;47.316;18.908;2023-04-24T13:01:02;6.25;;;3.72;;
70707;SDS011;58277;47.316;18.908;2023-04-24T13:03:25;7.93;;;4.15;;
70707;SDS011;58277;47.316;18.908;2023-04-24T13:05:48;10.90;;;3.83;;
70707;SDS011;58277;47.316;18.908;2023-04-24T13:08:10;6.60;;;4.07;;
70707;SDS011;58277;47.316;18.908;2023-04-24T13:10:35;7.45;;;4.55;;
70707;SDS011;58277;47.316;18.908;2023-04-24T13:12:59;7.85;;;4.50;;
70707;SDS011;58277;47.316;18.908;2023-04-24T13:15:23;7.47;;;4.15;;
70707;SDS011;58277;47.316;18.908;2023-04-24T13:17:45;8.87;;;4.30;;
70707;SDS011;58277;47.316;18.908;2023-04-24T13:20:09;10.10;;;5.65;;
70707;SDS011;58277;47.316;18.908;2023-04-24T13:22:32;9.55;;;5.00;;
70707;SDS011;58277;47.316;18.908;2023-04-24T13:24:55;8.80;;;4.43;;
70707;SDS011;58277;47.316;18.908;2023-04-24T13:27:18;6.25;;;4.30;;
70707;SDS011;58277;47.316;18.908;2023-04-24T13:29:41;7.40;;;4.20;;
70707;SDS011;58277;47.316;18.908;2023-04-24T13:32:04;7.60;;;4.30;;
70707;SDS011;58277;47.316;18.908;2023-04-24T13:34:27;6.60;;;4.50;;
70707;SDS011;58277;47.316;18.908;2023-04-24T13:36:50;8.25;;;4.50;;
70707;SDS011;58277;47.316;18.908;2023-04-24T13:39:17;7.10;;;4.65;;
70707;SDS011;58277;47.316;18.908;2023-04-24T13:41:40;7.80;;;4.27;;
70707;SDS011;58277;47.316;18.908;2023-04-24T13:44:03;6.30;;;4.32;;
70707;SDS011;58277;47.316;18.908;2023-04-24T13:46:26;8.02;;;4.40;;
70707;SDS011;58277;47.316;18.908;2023-04-24T13:48:49;7.47;;;4.70;;
70707;SDS011;58277;47.316;18.908;2023-04-24T13:51:12;6.53;;;4.40;;
70707;SDS011;58277;47.316;18.908;2023-04-24T13:53:35;7.80;;;4.73;;
70707;SDS011;58277;47.316;18.908;2023-04-24T13:56:00;7.65;;;4.63;;
70707;SDS011;58277;47.316;18.908;2023-04-24T13:58:23;9.48;;;4.82;;
70707;SDS011;58277;47.316;18.908;2023-04-24T14:00:46;7.35;;;4.57;;
70707;SDS011;58277;47.316;18.908;2023-04-24T14:03:08;7.70;;;4.82;;
70707;SDS011;58277;47.316;18.908;2023-04-24T14:05:31;8.47;;;5.13;;
70707;SDS011;58277;47.316;18.908;2023-04-24T14:07:54;10.95;;;6.60;;
70707;SDS011;58277;47.316;18.908;2023-04-24T14:10:17;10.73;;;5.15;;
70707;SDS011;58277;47.316;18.908;2023-04-24T14:12:39;9.32;;;5.15;;
70707;SDS011;58277;47.316;18.908;2023-04-24T14:15:03;9.68;;;6.10;;